createdAt,value
2023-03-26T00:01:45.329Z,8.05
2023-03-26T00:06:48.452Z,8.05
2023-03-26T00:11:50.172Z,7.93
2023-03-26T00:16:51.848Z,7.84
2023-03-26T00:21:54.848Z,7.80
2023-03-26T00:26:56.460Z,7.79
2023-03-26T00:31:58.108Z,7.71
2023-03-26T00:37:01.249Z,7.67
2023-03-26T00:42:03.158Z,7.66
2023-03-26T00:47:04.875Z,7.68
2023-03-26T00:52:07.873Z,7.64
2023-03-26T00:57:09.592Z,7.66
2023-03-26T01:02:13.513Z,7.51
2023-03-26T01:07:18.613Z,7.57
2023-03-26T01:12:22.766Z,7.48
2023-03-26T01:17:24.568Z,7.54
2023-03-26T01:22:27.777Z,7.45
2023-03-26T01:27:38.231Z,7.46
2023-03-26T01:32:50.261Z,7.41
2023-03-26T01:38:06.587Z,7.39
2023-03-26T01:43:17.935Z,7.37
2023-03-26T01:48:19.870Z,7.16
2023-03-26T01:53:21.816Z,7.34
2023-03-26T01:58:34.057Z,7.40
2023-03-26T02:03:43.610Z,7.31
2023-03-26T02:08:51.663Z,7.42
2023-03-26T02:13:54.806Z,7.58
2023-03-26T02:18:56.522Z,7.60
2023-03-26T02:23:58.224Z,7.60
2023-03-26T02:29:01.871Z,7.74
2023-03-26T02:34:03.682Z,7.53
2023-03-26T02:39:05.408Z,7.57
2023-03-26T02:44:08.502Z,7.67
2023-03-26T02:49:10.133Z,7.94
2023-03-26T02:54:11.800Z,7.76
2023-03-26T02:59:14.838Z,7.81
2023-03-26T03:04:16.490Z,7.77
2023-03-26T03:09:18.171Z,7.63
2023-03-26T03:14:21.192Z,7.59
2023-03-26T03:19:22.810Z,7.92
2023-03-26T03:24:24.441Z,7.76
2023-03-26T03:29:27.556Z,7.79
2023-03-26T03:34:29.234Z,7.70
2023-03-26T03:39:30.867Z,7.53
2023-03-26T03:44:33.926Z,7.64
2023-03-26T03:49:35.583Z,7.58
2023-03-26T03:54:37.238Z,7.75
2023-03-26T03:59:47.638Z,7.62
2023-03-26T04:04:49.872Z,7.78
2023-03-26T04:09:51.537Z,7.75
2023-03-26T04:14:54.807Z,7.77
2023-03-26T04:19:56.444Z,8.03
2023-03-26T04:24:58.126Z,8.16
2023-03-26T04:30:01.719Z,7.94
2023-03-26T04:35:03.880Z,8.20
2023-03-26T04:40:09.116Z,8.36
2023-03-26T04:45:13.115Z,8.21
2023-03-26T04:50:14.817Z,7.98
2023-03-26T04:55:23.491Z,8.38
2023-03-26T05:00:26.824Z,8.22
2023-03-26T05:05:29.380Z,8.08
2023-03-26T05:10:31.085Z,8.08
2023-03-26T05:15:34.109Z,8.25
2023-03-26T05:20:35.744Z,8.38
2023-03-26T05:25:37.391Z,8.42
2023-03-26T05:30:40.431Z,8.34
2023-03-26T05:35:42.176Z,8.46
2023-03-26T05:40:43.849Z,8.36
2023-03-26T05:45:48.824Z,8.25
2023-03-26T05:50:51.532Z,8.23
2023-03-26T05:55:53.772Z,8.21
2023-03-26T06:01:01.435Z,7.84
2023-03-26T06:06:06.337Z,8.13
2023-03-26T06:11:08.236Z,8.35
2023-03-26T06:16:27.362Z,8.32
2023-03-26T06:21:29.899Z,8.28
2023-03-26T06:26:31.503Z,8.51
2023-03-26T06:31:34.989Z,8.51
2023-03-26T06:36:36.694Z,8.38
2023-03-26T06:41:38.429Z,8.42
2023-03-26T06:46:41.520Z,8.40
2023-03-26T06:51:43.208Z,8.25
2023-03-26T06:56:44.871Z,8.27
2023-03-26T07:01:47.936Z,8.30
2023-03-26T07:06:49.545Z,8.43
2023-03-26T07:11:51.141Z,8.51
2023-03-26T07:16:54.173Z,8.44
2023-03-26T07:21:56.340Z,8.37
2023-03-26T07:27:06.989Z,8.45
2023-03-26T07:32:19.129Z,8.40
2023-03-26T07:37:44.128Z,8.33
2023-03-26T07:42:57.038Z,8.46
2023-03-26T07:48:00.699Z,8.43
2023-03-26T07:53:02.788Z,8.56
2023-03-26T07:58:16.249Z,8.52
2023-03-26T08:03:51.218Z,8.64
2023-03-26T08:08:59.766Z,8.65
2023-03-26T08:14:17.832Z,8.66
2023-03-26T08:19:41.629Z,8.67
2023-03-26T08:24:55.884Z,8.64
2023-03-26T08:30:03.640Z,8.48
2023-03-26T08:35:07.604Z,8.63
2023-03-26T08:40:09.816Z,8.69
2023-03-26T08:45:38.910Z,8.77
2023-03-26T08:51:07.056Z,8.85
2023-03-26T08:56:17.170Z,8.87
2023-03-26T09:01:52.226Z,9.22
2023-03-26T09:07:15.223Z,9.57
2023-03-26T09:12:37.913Z,9.47
2023-03-26T09:18:14.834Z,9.64
2023-03-26T09:23:45.039Z,10.17
2023-03-26T09:35:13.448Z,9.70
2023-03-26T09:40:19.068Z,10.33
2023-03-26T09:45:49.591Z,10.34
2023-03-26T09:51:13.288Z,9.76
2023-03-26T09:56:29.527Z,10.31
2023-03-26T10:01:40.194Z,11.19
2023-03-26T10:06:54.182Z,11.52
2023-03-26T10:12:10.718Z,10.10
2023-03-26T10:17:31.726Z,10.30
2023-03-26T10:22:47.146Z,10.13
2023-03-26T10:28:01.214Z,9.64
2023-03-26T10:33:13.231Z,10.17
2023-03-26T10:38:23.465Z,10.23
2023-03-26T10:44:08.467Z,10.69
2023-03-26T10:49:35.556Z,10.40
2023-03-26T10:54:48.404Z,10.45
2023-03-26T10:59:51.989Z,10.67
2023-03-26T11:05:16.068Z,10.40
2023-03-26T11:10:29.744Z,10.85
2023-03-26T11:15:37.744Z,11.19
2023-03-26T11:20:43.905Z,11.38
2023-03-26T11:26:00.572Z,11.47
2023-03-26T11:31:14.343Z,11.85
2023-03-26T11:36:19.650Z,11.59
2023-03-26T11:41:24.114Z,11.62
2023-03-26T11:46:27.574Z,12.08
2023-03-26T11:51:32.029Z,11.93
2023-03-26T11:57:04.504Z,11.69
2023-03-26T12:02:23.252Z,11.67
2023-03-26T12:07:30.941Z,11.76
2023-03-26T12:12:36.635Z,11.79
2023-03-26T12:17:40.549Z,12.02
2023-03-26T12:22:43.564Z,11.92
2023-03-26T12:27:48.644Z,11.84
2023-03-26T12:32:56.561Z,11.93
2023-03-26T12:38:14.831Z,12.19
2023-03-26T12:44:56.639Z,12.12
2023-03-26T12:48:53.274Z,12.13
2023-03-26T12:54:06.392Z,12.45
2023-03-26T12:59:29.461Z,12.56
2023-03-26T13:05:05.783Z,12.47
2023-03-26T13:10:37.884Z,12.72
2023-03-26T13:15:47.054Z,12.68
2023-03-26T13:20:57.776Z,12.56
2023-03-26T13:26:11.376Z,12.59
2023-03-26T13:31:20.987Z,12.86
2023-03-26T13:36:33.468Z,12.74
2023-03-26T13:41:51.750Z,12.49
2023-03-26T13:46:59.350Z,12.68
2023-03-26T13:52:06.036Z,12.83
2023-03-26T13:57:12.342Z,12.97
2023-03-26T14:02:23.102Z,13.25
2023-03-26T14:07:30.747Z,13.38
2023-03-26T14:12:43.305Z,13.13
2023-03-26T14:17:49.755Z,13.12
2023-03-26T14:23:03.681Z,12.93
2023-03-26T14:28:24.127Z,12.85
2023-03-26T14:33:58.518Z,12.60
2023-03-26T14:39:37.361Z,12.24
2023-03-26T14:44:56.389Z,10.97
2023-03-26T14:50:27.231Z,10.30
2023-03-26T14:55:49.225Z,9.66
2023-03-26T15:01:26.716Z,9.42
2023-03-26T15:07:28.575Z,9.65
2023-03-26T15:12:43.044Z,9.40
2023-03-26T15:18:29.177Z,9.67
2023-03-26T15:24:22.486Z,9.87
2023-03-26T15:29:52.888Z,9.95
2023-03-26T15:35:22.261Z,10.26
2023-03-26T15:40:43.338Z,10.31
2023-03-26T15:45:51.016Z,10.42
2023-03-26T15:50:56.511Z,10.45
2023-03-26T15:56:05.231Z,10.48
2023-03-26T16:01:17.772Z,10.51
2023-03-26T16:06:29.662Z,10.54
2023-03-26T16:11:47.643Z,10.67
2023-03-26T16:16:57.261Z,10.70
2023-03-26T16:22:01.821Z,10.65
2023-03-26T16:27:27.734Z,10.63
2023-03-26T16:32:33.981Z,10.51
2023-03-26T16:37:39.367Z,10.57
2023-03-26T16:42:47.673Z,10.38
2023-03-26T16:48:00.921Z,10.24
2023-03-26T16:53:17.185Z,9.88
2023-03-26T16:58:30.125Z,10.05
2023-03-26T17:03:49.756Z,9.78
2023-03-26T17:09:01.318Z,9.62
2023-03-26T17:14:17.555Z,9.35
2023-03-26T17:19:32.513Z,9.31
2023-03-26T17:24:42.760Z,9.32
2023-03-26T17:30:02.015Z,9.42
2023-03-26T17:35:08.785Z,9.44
2023-03-26T17:40:45.251Z,9.43
2023-03-26T17:45:47.099Z,9.24
2023-03-26T17:51:22.446Z,9.18
2023-03-26T17:56:29.675Z,9.12
2023-03-26T18:01:36.491Z,9.21
2023-03-26T18:07:01.856Z,9.16
2023-03-26T18:12:36.948Z,8.94
2023-03-26T18:17:45.285Z,9.21
2023-03-26T18:22:49.259Z,8.99
2023-03-26T18:27:51.417Z,9.06
2023-03-26T18:33:00.416Z,9.08
2023-03-26T18:38:04.033Z,9.11
2023-03-26T18:43:05.817Z,9.10
2023-03-26T18:48:13.056Z,9.16
2023-03-26T18:53:19.553Z,9.11
2023-03-26T18:58:24.188Z,9.06
2023-03-26T19:03:27.043Z,9.04
2023-03-26T19:08:31.236Z,8.94
2023-03-26T19:13:34.810Z,8.94
2023-03-26T19:18:40.673Z,8.82
2023-03-26T19:23:47.674Z,8.80
2023-03-26T19:28:51.775Z,8.77
2023-03-26T19:33:59.566Z,8.71
2023-03-26T19:39:12.104Z,8.75
2023-03-26T19:44:20.728Z,8.52
2023-03-26T19:49:28.432Z,8.53
2023-03-26T19:54:31.669Z,8.58
2023-03-26T19:59:33.311Z,8.45
2023-03-26T20:04:34.937Z,8.55
2023-03-26T20:09:37.985Z,8.59
2023-03-26T20:14:44.311Z,8.41
2023-03-26T20:19:46.567Z,8.27
2023-03-26T20:24:49.813Z,8.12
2023-03-26T20:29:51.443Z,8.33
2023-03-26T20:35:36.252Z,8.17
2023-03-26T20:41:26.844Z,8.15
2023-03-26T20:52:06.118Z,8.33
2023-03-26T20:57:10.322Z,8.39
2023-03-26T21:02:12.103Z,8.38
2023-03-26T21:07:18.198Z,8.32
2023-03-26T21:12:29.641Z,8.34
2023-03-26T21:17:31.898Z,8.20
2023-03-26T21:22:39.961Z,8.20
2023-03-26T21:27:54.693Z,8.13
2023-03-26T21:32:56.344Z,8.37
2023-03-26T21:37:58.629Z,8.18
2023-03-26T21:43:02.531Z,8.13
2023-03-26T21:48:05.086Z,7.98
2023-03-26T21:53:07.249Z,8.07
2023-03-26T21:58:21.904Z,8.40
2023-03-26T22:03:27.901Z,7.98
2023-03-26T22:08:33.002Z,7.80
2023-03-26T22:13:36.915Z,7.62
2023-03-26T22:18:38.607Z,7.66
2023-03-26T22:23:40.269Z,7.73
2023-03-26T22:28:43.273Z,7.49
2023-03-26T22:33:44.987Z,7.69
2023-03-26T22:38:46.787Z,7.51
2023-03-26T22:43:49.931Z,7.56
2023-03-26T22:48:51.734Z,7.67
2023-03-26T22:53:53.385Z,7.62
2023-03-26T22:58:56.652Z,7.40
2023-03-26T23:03:58.387Z,7.34
2023-03-26T23:09:00.267Z,7.34
2023-03-26T23:14:03.248Z,7.43
2023-03-26T23:19:04.923Z,7.31
2023-03-26T23:24:06.732Z,7.25
2023-03-26T23:29:10.063Z,7.22
2023-03-26T23:34:11.729Z,7.14
2023-03-26T23:39:13.429Z,7.16
2023-03-26T23:44:16.511Z,7.21
2023-03-26T23:49:18.569Z,7.09
2023-03-26T23:54:20.191Z,6.99
2023-03-26T23:59:23.300Z,7.11
